createdAt,value
2023-10-19T00:00:45.770Z,25.95
2023-10-19T00:03:13.412Z,24.40
2023-10-19T00:05:40.372Z,20.20
2023-10-19T00:08:20.563Z,19.83
2023-10-19T00:10:55.467Z,23.60
2023-10-19T00:13:23.491Z,18.23
2023-10-19T00:15:52.850Z,18.75
2023-10-19T00:18:20.194Z,20.83
2023-10-19T00:20:55.658Z,20.85
2023-10-19T00:23:33.109Z,21.83
2023-10-19T00:26:01.148Z,22.52
2023-10-19T00:28:28.263Z,19.40
2023-10-19T00:31:01.302Z,23.42
2023-10-19T00:33:29.783Z,19.77
2023-10-19T00:36:09.110Z,25.75
2023-10-19T00:38:36.613Z,20.00
2023-10-19T00:41:12.999Z,18.52
2023-10-19T00:43:44.646Z,23.58
2023-10-19T00:46:25.342Z,20.73
2023-10-19T00:48:57.082Z,20.40
2023-10-19T00:51:29.069Z,19.45
2023-10-19T00:53:58.350Z,21.67
2023-10-19T00:59:01.291Z,21.73
2023-10-19T01:01:30.192Z,22.23
2023-10-19T01:03:57.438Z,23.45
2023-10-19T01:06:25.079Z,23.55
2023-10-19T01:08:52.254Z,19.80
2023-10-19T01:11:22.102Z,20.25
2023-10-19T01:13:49.411Z,21.73
2023-10-19T01:16:23.087Z,19.42
2023-10-19T01:18:56.836Z,22.50
2023-10-19T01:21:28.915Z,21.35
2023-10-19T01:23:55.569Z,24.23
2023-10-19T01:26:28.002Z,22.38
2023-10-19T01:29:00.201Z,22.00
2023-10-19T01:31:29.895Z,19.83
2023-10-19T01:33:58.827Z,20.00
2023-10-19T01:36:26.158Z,21.25
2023-10-19T01:39:01.788Z,22.92
2023-10-19T01:41:31.848Z,22.95
2023-10-19T01:44:05.547Z,20.70
2023-10-19T01:46:34.930Z,21.75
2023-10-19T01:51:33.786Z,19.63
2023-10-19T01:54:04.115Z,20.67
2023-10-19T01:56:30.806Z,24.00
2023-10-19T01:58:58.735Z,23.65
2023-10-19T02:01:28.299Z,23.30
2023-10-19T02:04:01.060Z,20.90
2023-10-19T02:06:35.250Z,21.92
2023-10-19T02:09:19.542Z,19.88
2023-10-19T02:11:48.362Z,20.92
2023-10-19T02:14:16.950Z,20.83
2023-10-19T02:16:57.348Z,20.67
2023-10-19T02:19:26.103Z,23.20
2023-10-19T02:22:09.321Z,22.30
2023-10-19T02:24:36.127Z,21.83
2023-10-19T02:27:02.800Z,24.35
2023-10-19T02:29:29.649Z,22.98
2023-10-19T02:31:57.806Z,22.30
2023-10-19T02:34:25.312Z,24.15
2023-10-19T02:36:51.970Z,20.67
2023-10-19T02:39:18.816Z,21.67
2023-10-19T02:41:49.135Z,24.50
2023-10-19T02:44:18.490Z,24.70
2023-10-19T02:49:19.587Z,24.25
2023-10-19T02:51:47.389Z,21.77
2023-10-19T02:54:22.934Z,25.25
2023-10-19T02:56:52.853Z,24.15
2023-10-19T02:59:24.479Z,25.70
2023-10-19T03:02:02.541Z,27.10
2023-10-19T03:04:30.040Z,22.80
2023-10-19T03:07:00.404Z,26.77
2023-10-19T03:09:26.983Z,26.45
2023-10-19T03:11:54.544Z,24.60
2023-10-19T03:14:21.368Z,22.92
2023-10-19T03:16:48.700Z,26.45
2023-10-19T03:19:15.477Z,24.10
2023-10-19T03:21:45.080Z,24.30
2023-10-19T03:24:24.816Z,21.33
2023-10-19T03:26:51.943Z,26.30
2023-10-19T03:29:32.670Z,25.98
2023-10-19T03:32:02.806Z,25.52
2023-10-19T03:34:33.458Z,28.27
2023-10-19T03:37:08.437Z,23.73
2023-10-19T03:39:35.528Z,22.73
2023-10-19T03:42:02.420Z,23.88
2023-10-19T03:44:40.241Z,23.65
2023-10-19T03:47:12.493Z,26.23
2023-10-19T03:49:40.281Z,24.13
2023-10-19T03:52:09.234Z,24.90
2023-10-19T03:54:40.308Z,22.70
2023-10-19T03:57:25.743Z,22.40
2023-10-19T03:59:58.959Z,24.60
2023-10-19T04:02:36.766Z,26.45
2023-10-19T04:05:04.710Z,28.52
2023-10-19T04:07:32.935Z,24.02
2023-10-19T04:10:25.989Z,28.13
2023-10-19T04:12:52.559Z,26.20
2023-10-19T04:15:22.229Z,26.65
2023-10-19T04:17:50.206Z,25.15
2023-10-19T04:20:18.967Z,23.95
2023-10-19T04:22:47.123Z,27.02
2023-10-19T04:25:14.723Z,28.98
2023-10-19T04:27:43.136Z,28.55
2023-10-19T04:30:23.099Z,27.17
2023-10-19T04:32:52.070Z,28.52
2023-10-19T04:35:22.957Z,32.38
2023-10-19T04:37:54.118Z,32.42
2023-10-19T04:40:22.484Z,28.92
2023-10-19T04:42:51.142Z,32.03
2023-10-19T04:45:17.886Z,32.13
2023-10-19T04:47:44.779Z,30.90
2023-10-19T04:50:12.061Z,32.13
2023-10-19T04:52:39.340Z,30.60
2023-10-19T04:55:06.931Z,34.08
2023-10-19T04:57:33.584Z,34.63
2023-10-19T05:00:00.288Z,35.80
2023-10-19T05:02:27.020Z,37.67
2023-10-19T05:04:53.778Z,34.13
2023-10-19T05:07:20.425Z,34.75
2023-10-19T05:09:47.501Z,35.05
2023-10-19T05:12:15.973Z,32.92
2023-10-19T05:14:43.688Z,39.38
2023-10-19T05:17:11.016Z,35.85
2023-10-19T05:19:39.539Z,34.40
2023-10-19T05:22:08.045Z,33.83
2023-10-19T05:24:34.713Z,37.08
2023-10-19T05:27:01.374Z,30.30
2023-10-19T05:29:28.223Z,32.55
2023-10-19T05:31:55.596Z,36.78
2023-10-19T05:34:22.874Z,32.00
2023-10-19T05:36:50.224Z,34.95
2023-10-19T05:39:17.542Z,39.03
2023-10-19T05:41:44.391Z,39.60
2023-10-19T05:44:11.397Z,32.65
2023-10-19T05:46:39.251Z,31.95
2023-10-19T05:49:07.236Z,33.75
2023-10-19T05:51:34.029Z,38.55
2023-10-19T05:54:04.223Z,32.75
2023-10-19T05:56:31.617Z,33.25
2023-10-19T05:58:58.915Z,36.53
2023-10-19T06:01:25.934Z,37.08
2023-10-19T06:03:52.904Z,28.88
2023-10-19T06:06:21.167Z,30.95
2023-10-19T06:08:47.888Z,27.48
2023-10-19T06:11:14.672Z,34.38
2023-10-19T06:13:41.356Z,34.97
2023-10-19T06:16:08.154Z,32.45
2023-10-19T06:18:34.866Z,35.90
2023-10-19T06:21:01.609Z,29.42
2023-10-19T06:23:28.143Z,34.13
2023-10-19T06:25:54.818Z,32.85
2023-10-19T06:28:21.491Z,31.70
2023-10-19T06:30:49.197Z,28.85
2023-10-19T06:33:16.025Z,34.72
2023-10-19T06:35:42.694Z,34.90
2023-10-19T06:38:10.754Z,37.90
2023-10-19T06:40:37.790Z,40.58
2023-10-19T06:43:06.344Z,41.92
2023-10-19T06:45:34.587Z,47.33
2023-10-19T06:48:01.454Z,49.95
2023-10-19T06:50:28.266Z,51.35
2023-10-19T06:52:57.577Z,45.08
2023-10-19T06:55:24.479Z,63.65
2023-10-19T06:57:56.337Z,71.10
2023-10-19T07:00:26.083Z,71.72
2023-10-19T07:02:53.960Z,73.63
2023-10-19T07:05:30.699Z,83.55
2023-10-19T07:08:00.511Z,76.75
2023-10-19T07:10:28.437Z,68.25
2023-10-19T07:12:57.295Z,75.20
2023-10-19T07:15:24.779Z,66.68
2023-10-19T07:17:55.396Z,83.40
2023-10-19T07:20:28.781Z,77.63
2023-10-19T07:23:21.989Z,95.22
2023-10-19T07:25:53.883Z,74.65
2023-10-19T07:28:21.002Z,89.03
2023-10-19T07:30:48.072Z,92.32
2023-10-19T07:33:19.234Z,123.18
2023-10-19T07:35:53.618Z,103.90
2023-10-19T07:38:23.648Z,104.88
2023-10-19T07:40:54.077Z,86.88
2023-10-19T07:43:21.548Z,77.45
2023-10-19T07:45:48.931Z,104.47
2023-10-19T07:48:15.916Z,102.80
2023-10-19T07:50:43.419Z,84.30
2023-10-19T07:53:10.655Z,96.13
2023-10-19T07:55:39.734Z,75.72
2023-10-19T07:58:07.859Z,81.45
2023-10-19T08:00:35.293Z,96.88
2023-10-19T08:03:02.866Z,90.70
2023-10-19T08:05:29.548Z,90.53
2023-10-19T08:07:58.273Z,115.78
2023-10-19T08:10:26.413Z,83.15
2023-10-19T08:12:53.538Z,72.90
2023-10-19T08:15:21.433Z,91.20
2023-10-19T08:17:51.003Z,93.40
2023-10-19T08:20:18.561Z,98.43
2023-10-19T08:22:47.851Z,143.27
2023-10-19T08:25:17.757Z,106.47
2023-10-19T08:27:46.570Z,117.28
2023-10-19T08:30:21.388Z,131.73
2023-10-19T08:32:52.489Z,117.28
2023-10-19T08:35:26.226Z,84.57
2023-10-19T08:37:54.627Z,83.35
2023-10-19T08:40:22.758Z,77.55
2023-10-19T08:42:49.588Z,82.57
2023-10-19T08:45:17.392Z,93.40
2023-10-19T08:47:58.257Z,79.32
2023-10-19T08:50:30.500Z,92.88
2023-10-19T08:53:01.866Z,105.30
2023-10-19T08:55:41.570Z,101.50
2023-10-19T08:58:17.945Z,77.03
2023-10-19T09:00:58.160Z,132.00
2023-10-19T09:03:26.703Z,87.93
2023-10-19T09:05:55.341Z,90.40
2023-10-19T09:08:23.399Z,73.63
2023-10-19T09:10:55.164Z,79.00
2023-10-19T09:13:24.193Z,97.95
2023-10-19T09:18:25.001Z,72.13
2023-10-19T09:21:08.768Z,68.90
2023-10-19T09:23:37.262Z,75.95
2023-10-19T09:26:05.227Z,74.70
2023-10-19T09:28:35.518Z,69.25
2023-10-19T09:31:02.867Z,70.55
2023-10-19T09:33:31.501Z,67.30
2023-10-19T09:36:01.952Z,74.03
2023-10-19T09:38:28.597Z,73.93
2023-10-19T09:40:56.641Z,69.30
2023-10-19T09:43:38.294Z,70.22
2023-10-19T09:46:12.777Z,64.90
2023-10-19T09:48:45.182Z,60.90
2023-10-19T09:53:44.496Z,64.35
2023-10-19T09:58:51.152Z,65.22
2023-10-19T10:01:20.219Z,92.43
2023-10-19T10:03:52.431Z,83.05
2023-10-19T10:06:51.430Z,91.55
2023-10-19T10:09:24.404Z,99.07
2023-10-19T10:11:53.911Z,83.30
2023-10-19T10:14:25.710Z,67.45
2023-10-19T10:17:03.463Z,70.50
2023-10-19T10:19:30.271Z,64.72
2023-10-19T10:22:13.437Z,61.00
2023-10-19T10:24:43.622Z,60.22
2023-10-19T10:27:11.473Z,60.53
2023-10-19T10:29:54.412Z,60.53
2023-10-19T10:32:55.597Z,57.72
2023-10-19T10:35:37.622Z,60.80
2023-10-19T10:38:23.997Z,61.38
2023-10-19T10:40:51.785Z,57.30
2023-10-19T10:43:19.883Z,61.63
2023-10-19T10:45:46.604Z,58.55
2023-10-19T10:48:14.593Z,67.22
2023-10-19T10:50:42.809Z,63.92
2023-10-19T10:53:13.459Z,58.22
2023-10-19T10:55:40.627Z,59.55
2023-10-19T10:58:07.644Z,59.28
2023-10-19T11:00:35.315Z,68.70
2023-10-19T11:03:10.973Z,69.28
2023-10-19T11:05:38.760Z,63.90
2023-10-19T11:08:08.536Z,65.22
2023-10-19T11:10:35.440Z,71.70
2023-10-19T11:13:07.248Z,67.25
2023-10-19T11:15:35.122Z,64.75
2023-10-19T11:18:02.757Z,62.10
2023-10-19T11:20:29.702Z,61.50
2023-10-19T11:22:58.433Z,58.95
2023-10-19T11:25:29.267Z,64.32
2023-10-19T11:27:59.876Z,57.75
2023-10-19T11:30:32.449Z,57.53
2023-10-19T11:33:02.216Z,63.60
2023-10-19T11:35:32.665Z,59.25
2023-10-19T11:38:01.162Z,49.45
2023-10-19T11:40:28.537Z,59.05
2023-10-19T11:43:01.450Z,57.20
2023-10-19T11:45:28.898Z,52.05
2023-10-19T11:47:56.286Z,57.70
2023-10-19T11:50:22.990Z,53.50
2023-10-19T11:52:49.633Z,50.22
2023-10-19T11:55:16.913Z,57.75
2023-10-19T11:57:44.787Z,57.95
2023-10-19T12:00:15.327Z,61.85
2023-10-19T12:02:45.014Z,58.67
2023-10-19T12:05:11.930Z,63.28
2023-10-19T12:07:39.498Z,61.80
2023-10-19T12:10:09.219Z,54.17
2023-10-19T12:12:50.072Z,53.75
2023-10-19T12:15:23.982Z,56.05
2023-10-19T12:17:52.192Z,58.83
2023-10-19T12:20:22.792Z,56.43
2023-10-19T12:22:53.249Z,52.80
2023-10-19T12:25:19.998Z,52.88
2023-10-19T12:27:46.578Z,51.95
2023-10-19T12:30:22.864Z,60.17
2023-10-19T12:32:52.698Z,55.92
2023-10-19T12:35:31.114Z,53.40
2023-10-19T12:37:57.812Z,51.35
2023-10-19T12:40:27.508Z,55.05
2023-10-19T12:42:59.588Z,55.65
2023-10-19T12:45:29.414Z,52.55
2023-10-19T12:47:56.059Z,59.33
2023-10-19T12:50:23.835Z,55.45
2023-10-19T12:52:51.360Z,58.35
2023-10-19T12:55:19.361Z,56.78
2023-10-19T12:57:45.932Z,56.60
2023-10-19T13:00:26.506Z,55.50
2023-10-19T13:03:02.986Z,56.28
2023-10-19T13:05:33.685Z,56.72
2023-10-19T13:08:01.174Z,64.35
2023-10-19T13:10:34.801Z,61.40
2023-10-19T13:13:05.977Z,63.47
2023-10-19T13:15:35.808Z,62.13
2023-10-19T13:18:03.842Z,61.58
2023-10-19T13:20:37.307Z,61.20
2023-10-19T13:23:05.384Z,64.53
2023-10-19T13:25:51.597Z,61.88
2023-10-19T13:28:19.525Z,59.35
2023-10-19T13:30:56.536Z,61.35
2023-10-19T13:33:25.077Z,66.15
2023-10-19T13:35:51.823Z,60.33
2023-10-19T13:38:20.945Z,61.28
2023-10-19T13:43:15.440Z,67.25
2023-10-19T13:45:46.242Z,64.35
2023-10-19T13:48:13.992Z,64.03
2023-10-19T13:50:51.099Z,59.42
2023-10-19T13:53:17.893Z,64.43
2023-10-19T13:55:45.436Z,61.97
2023-10-19T13:58:13.628Z,63.55
2023-10-19T14:00:44.556Z,64.80
2023-10-19T14:03:13.781Z,62.95
2023-10-19T14:08:10.992Z,65.07
2023-10-19T14:10:44.574Z,63.67
2023-10-19T14:13:18.141Z,66.38
2023-10-19T14:15:45.100Z,68.75
2023-10-19T14:18:14.732Z,68.97
2023-10-19T14:20:41.741Z,66.15
2023-10-19T14:23:09.634Z,66.95
2023-10-19T14:25:40.617Z,57.50
2023-10-19T14:28:10.855Z,60.30
2023-10-19T14:30:37.641Z,63.90
2023-10-19T14:33:05.223Z,65.40
2023-10-19T14:35:31.939Z,66.72
2023-10-19T14:38:00.319Z,65.32
2023-10-19T14:40:28.922Z,65.60
2023-10-19T14:42:57.579Z,66.22
2023-10-19T14:45:33.723Z,63.78
2023-10-19T14:48:04.306Z,64.22
2023-10-19T14:50:32.042Z,78.20
2023-10-19T14:52:59.006Z,58.78
2023-10-19T14:55:26.054Z,62.67
2023-10-19T14:57:55.301Z,57.75
2023-10-19T15:02:51.870Z,63.33
2023-10-19T15:05:19.645Z,63.47
2023-10-19T15:07:58.415Z,65.20
2023-10-19T15:10:27.440Z,61.13
2023-10-19T15:12:55.014Z,61.55
2023-10-19T15:15:22.050Z,63.47
2023-10-19T15:17:51.388Z,64.03
2023-10-19T15:20:18.153Z,65.70
2023-10-19T15:22:47.450Z,63.22
2023-10-19T15:25:15.361Z,62.78
2023-10-19T15:27:43.525Z,63.45
2023-10-19T15:30:14.698Z,66.88
2023-10-19T15:32:44.583Z,58.60
2023-10-19T15:35:12.894Z,65.70
2023-10-19T15:37:39.994Z,56.97
2023-10-19T15:40:07.585Z,61.30
2023-10-19T15:42:37.305Z,55.92
2023-10-19T15:45:04.156Z,56.13
2023-10-19T15:47:31.351Z,53.63
2023-10-19T15:49:58.040Z,52.95
2023-10-19T15:52:26.338Z,51.30
2023-10-19T15:54:53.286Z,49.00
2023-10-19T15:57:20.000Z,47.38
2023-10-19T15:59:47.623Z,47.97
2023-10-19T16:02:16.054Z,38.92
2023-10-19T16:04:44.082Z,40.17
2023-10-19T16:07:11.796Z,37.05
2023-10-19T16:09:39.123Z,42.58
2023-10-19T16:12:09.073Z,39.40
2023-10-19T16:14:36.733Z,38.55
2023-10-19T16:17:04.180Z,34.70
2023-10-19T16:19:31.560Z,32.50
2023-10-19T16:21:59.079Z,35.05
2023-10-19T16:24:26.257Z,33.05
2023-10-19T16:26:53.608Z,42.03
2023-10-19T16:29:20.612Z,51.03
2023-10-19T16:31:50.742Z,48.00
2023-10-19T16:34:20.606Z,51.08
2023-10-19T16:36:47.182Z,52.95
2023-10-19T16:39:19.968Z,54.10
2023-10-19T16:41:53.793Z,50.58
2023-10-19T16:44:20.937Z,45.33
2023-10-19T16:46:48.043Z,55.00
2023-10-19T16:49:15.379Z,49.40
2023-10-19T16:51:44.022Z,50.88
2023-10-19T16:54:11.415Z,51.88
2023-10-19T16:56:40.892Z,172.60
2023-10-19T16:59:08.659Z,80.05
2023-10-19T17:01:35.437Z,99.15
2023-10-19T17:04:02.819Z,73.15
2023-10-19T17:06:29.969Z,63.22
2023-10-19T17:09:10.096Z,57.60
2023-10-19T17:11:36.672Z,68.13
2023-10-19T17:14:03.331Z,57.03
2023-10-19T17:16:31.078Z,60.85
2023-10-19T17:18:57.789Z,61.08
2023-10-19T17:21:24.379Z,67.75
2023-10-19T17:23:51.030Z,57.15
2023-10-19T17:26:17.618Z,56.30
2023-10-19T17:28:44.318Z,53.30
2023-10-19T17:31:12.598Z,50.75
2023-10-19T17:33:39.421Z,50.07
2023-10-19T17:36:08.368Z,53.10
2023-10-19T17:38:35.024Z,46.00
2023-10-19T17:41:01.720Z,53.30
2023-10-19T17:43:28.420Z,56.63
2023-10-19T17:45:55.335Z,54.85
2023-10-19T17:48:22.278Z,51.05
2023-10-19T17:50:49.637Z,52.15
2023-10-19T17:53:18.217Z,50.38
2023-10-19T17:55:45.020Z,48.47
2023-10-19T17:58:11.855Z,48.83
2023-10-19T18:00:39.597Z,46.30
2023-10-19T18:03:07.695Z,47.70
2023-10-19T18:05:34.494Z,50.92
2023-10-19T18:08:01.131Z,45.72
2023-10-19T18:10:30.830Z,49.30
2023-10-19T18:12:57.707Z,49.60
2023-10-19T18:15:28.558Z,49.65
2023-10-19T18:17:55.933Z,44.00
2023-10-19T18:20:22.709Z,43.92
2023-10-19T18:22:49.419Z,53.15
2023-10-19T18:25:18.082Z,48.00
2023-10-19T18:27:44.745Z,50.30
2023-10-19T18:30:13.616Z,35.05
2023-10-19T18:32:41.781Z,49.40
2023-10-19T18:35:09.283Z,47.47
2023-10-19T18:37:36.024Z,43.58
2023-10-19T18:40:03.673Z,52.30
2023-10-19T18:42:32.930Z,40.10
2023-10-19T18:47:27.947Z,42.20
2023-10-19T18:49:58.300Z,32.75
2023-10-19T18:52:25.778Z,29.77
2023-10-19T18:54:52.427Z,33.67
2023-10-19T18:57:19.022Z,25.10
2023-10-19T18:59:45.656Z,29.48
2023-10-19T19:02:12.845Z,27.13
2023-10-19T19:04:41.744Z,21.10
2023-10-19T19:07:09.906Z,20.83
2023-10-19T19:09:36.666Z,25.30
2023-10-19T19:12:04.380Z,20.50
2023-10-19T19:14:31.408Z,23.35
2023-10-19T19:17:00.565Z,22.17
2023-10-19T19:19:27.233Z,23.27
2023-10-19T19:21:55.587Z,21.52
2023-10-19T19:24:22.326Z,22.10
2023-10-19T19:26:49.480Z,22.08
2023-10-19T19:29:19.236Z,20.60
2023-10-19T19:31:47.709Z,16.92
2023-10-19T19:34:14.407Z,22.17
2023-10-19T19:36:41.237Z,15.48
2023-10-19T19:39:09.779Z,18.05
2023-10-19T19:41:37.566Z,18.02
2023-10-19T19:44:04.195Z,21.73
2023-10-19T19:46:31.026Z,19.42
2023-10-19T19:48:57.884Z,17.90
2023-10-19T19:51:24.602Z,23.83
2023-10-19T19:53:52.020Z,20.13
2023-10-19T19:56:18.628Z,19.08
2023-10-19T19:58:45.566Z,22.40
2023-10-19T20:01:12.884Z,18.90
2023-10-19T20:03:39.558Z,21.20
2023-10-19T20:06:07.153Z,17.58
2023-10-19T20:08:35.204Z,20.42
2023-10-19T20:11:02.659Z,21.02
2023-10-19T20:13:29.465Z,20.45
2023-10-19T20:15:57.879Z,19.77
2023-10-19T20:18:24.656Z,21.42
2023-10-19T20:20:51.389Z,19.83
2023-10-19T20:23:21.415Z,19.10
2023-10-19T20:25:48.295Z,15.82
2023-10-19T20:28:15.067Z,17.48
2023-10-19T20:30:41.601Z,16.13
2023-10-19T20:33:09.473Z,17.33
2023-10-19T20:35:36.154Z,16.85
2023-10-19T20:38:06.265Z,19.23
2023-10-19T20:40:36.723Z,18.05
2023-10-19T20:43:06.266Z,18.40
2023-10-19T20:45:32.883Z,19.33
2023-10-19T20:47:59.537Z,23.30
2023-10-19T20:50:28.885Z,17.45
2023-10-19T20:52:59.125Z,15.95
2023-10-19T20:55:25.681Z,16.73
2023-10-19T20:57:53.017Z,17.23
2023-10-19T21:00:20.859Z,17.90
2023-10-19T21:02:48.143Z,21.58
2023-10-19T21:05:21.301Z,15.80
2023-10-19T21:07:49.222Z,18.30
2023-10-19T21:10:19.670Z,16.92
2023-10-19T21:12:47.583Z,19.73
2023-10-19T21:15:16.994Z,18.70
2023-10-19T21:17:45.227Z,16.25
2023-10-19T21:20:21.411Z,18.42
2023-10-19T21:22:50.429Z,18.95
2023-10-19T21:25:19.133Z,18.70
2023-10-19T21:27:47.834Z,14.43
2023-10-19T21:30:15.313Z,16.27
2023-10-19T21:32:43.287Z,13.75
2023-10-19T21:35:10.712Z,14.38
2023-10-19T21:37:37.669Z,16.98
2023-10-19T21:40:05.957Z,15.32
2023-10-19T21:42:32.892Z,15.37
2023-10-19T21:45:00.059Z,18.60
2023-10-19T21:47:26.987Z,19.50
2023-10-19T21:49:54.527Z,20.98
2023-10-19T21:52:27.359Z,19.80
2023-10-19T21:54:57.276Z,18.60
2023-10-19T21:57:24.121Z,18.60
2023-10-19T21:59:51.225Z,44.00
2023-10-19T22:02:17.931Z,25.58
2023-10-19T22:04:45.477Z,24.33
2023-10-19T22:07:14.676Z,22.83
2023-10-19T22:09:42.026Z,21.90
2023-10-19T22:12:10.781Z,22.50
2023-10-19T22:14:37.520Z,24.90
2023-10-19T22:17:06.423Z,22.00
2023-10-19T22:19:33.326Z,22.92
2023-10-19T22:21:59.939Z,20.80
2023-10-19T22:24:26.555Z,22.80
2023-10-19T22:26:53.169Z,22.25
2023-10-19T22:29:20.293Z,24.05
2023-10-19T22:31:51.946Z,25.85
2023-10-19T22:34:19.545Z,27.00
2023-10-19T22:36:46.293Z,29.05
2023-10-19T22:39:13.548Z,27.60
2023-10-19T22:41:40.222Z,23.08
2023-10-19T22:44:08.337Z,27.38
2023-10-19T22:46:39.764Z,28.42
2023-10-19T22:49:06.923Z,27.80
2023-10-19T22:51:33.660Z,25.10
2023-10-19T22:54:00.522Z,25.83
2023-10-19T22:56:27.226Z,26.80
2023-10-19T22:58:54.416Z,24.20
2023-10-19T23:01:21.806Z,21.27
2023-10-19T23:03:48.674Z,22.98
2023-10-19T23:06:16.042Z,22.45
2023-10-19T23:08:42.927Z,27.92
2023-10-19T23:11:14.900Z,29.40
2023-10-19T23:13:46.263Z,32.70
2023-10-19T23:16:15.907Z,29.05
2023-10-19T23:18:42.957Z,24.13
2023-10-19T23:21:09.769Z,25.92
2023-10-19T23:23:36.778Z,22.48
2023-10-19T23:26:08.118Z,23.25
2023-10-19T23:28:35.867Z,22.40
2023-10-19T23:31:05.820Z,29.20
2023-10-19T23:33:34.179Z,26.58
2023-10-19T23:36:01.805Z,24.38
2023-10-19T23:38:28.638Z,27.83
2023-10-19T23:40:56.497Z,24.15
2023-10-19T23:43:23.784Z,21.25
2023-10-19T23:45:50.582Z,25.38
2023-10-19T23:48:20.814Z,21.02
2023-10-19T23:50:48.567Z,24.60
2023-10-19T23:53:17.298Z,28.08
2023-10-19T23:55:46.948Z,28.42
2023-10-19T23:58:14.765Z,21.15
